sensor_id;sensor_type;location;lat;lon;timestamp;P1;durP1;ratioP1;P2;durP2;ratioP2
19739;SDS011;10027;51.066;13.768;2023-02-04T00:00:00;1.93;;;0.50;;
19739;SDS011;10027;51.066;13.768;2023-02-04T00:02:27;1.23;;;0.40;;
19739;SDS011;10027;51.066;13.768;2023-02-04T00:04:55;1.27;;;0.30;;
19739;SDS011;10027;51.066;13.768;2023-02-04T00:07:22;2.43;;;0.40;;
19739;SDS011;10027;51.066;13.768;2023-02-04T00:09:49;0.30;;;0.20;;
19739;SDS011;10027;51.066;13.768;2023-02-04T00:12:16;0.50;;;0.40;;
19739;SDS011;10027;51.066;13.768;2023-02-04T00:14:43;0.40;;;0.27;;
19739;SDS011;10027;51.066;13.768;2023-02-04T00:17:10;0.40;;;0.30;;
19739;SDS011;10027;51.066;13.768;2023-02-04T00:19:38;0.40;;;0.20;;
19739;SDS011;10027;51.066;13.768;2023-02-04T00:22:06;0.47;;;0.30;;
19739;SDS011;10027;51.066;13.768;2023-02-04T00:24:33;0.73;;;0.30;;
19739;SDS011;10027;51.066;13.768;2023-02-04T00:27:01;0.60;;;0.30;;
19739;SDS011;10027;51.066;13.768;2023-02-04T00:29:28;1.00;;;0.37;;
19739;SDS011;10027;51.066;13.768;2023-02-04T00:31:56;1.23;;;0.30;;
19739;SDS011;10027;51.066;13.768;2023-02-04T00:34:23;1.60;;;0.47;;
19739;SDS011;10027;51.066;13.768;2023-02-04T00:36:51;1.10;;;0.30;;
19739;SDS011;10027;51.066;13.768;2023-02-04T00:39:18;1.30;;;0.30;;
19739;SDS011;10027;51.066;13.768;2023-02-04T00:41:45;0.30;;;0.30;;
19739;SDS011;10027;51.066;13.768;2023-02-04T00:44:12;0.30;;;0.30;;
19739;SDS011;10027;51.066;13.768;2023-02-04T00:46:40;0.50;;;0.33;;
19739;SDS011;10027;51.066;13.768;2023-02-04T00:49:08;0.93;;;0.50;;
19739;SDS011;10027;51.066;13.768;2023-02-04T00:51:39;1.13;;;0.30;;
19739;SDS011;10027;51.066;13.768;2023-02-04T00:54:09;0.40;;;0.30;;
19739;SDS011;10027;51.066;13.768;2023-02-04T00:56:36;0.50;;;0.50;;
19739;SDS011;10027;51.066;13.768;2023-02-04T00:59:03;0.77;;;0.40;;
19739;SDS011;10027;51.066;13.768;2023-02-04T01:01:30;1.70;;;0.50;;
19739;SDS011;10027;51.066;13.768;2023-02-04T01:03:57;1.83;;;0.40;;
19739;SDS011;10027;51.066;13.768;2023-02-04T01:06:24;0.50;;;0.30;;
19739;SDS011;10027;51.066;13.768;2023-02-04T01:08:51;1.27;;;0.50;;
19739;SDS011;10027;51.066;13.768;2023-02-04T01:11:18;0.53;;;0.40;;
19739;SDS011;10027;51.066;13.768;2023-02-04T01:13:46;0.80;;;0.43;;
19739;SDS011;10027;51.066;13.768;2023-02-04T01:16:13;1.53;;;0.40;;
19739;SDS011;10027;51.066;13.768;2023-02-04T01:18:40;1.63;;;0.37;;
19739;SDS011;10027;51.066;13.768;2023-02-04T01:21:07;0.70;;;0.47;;
19739;SDS011;10027;51.066;13.768;2023-02-04T01:23:35;0.50;;;0.40;;
19739;SDS011;10027;51.066;13.768;2023-02-04T01:26:03;1.77;;;0.57;;
19739;SDS011;10027;51.066;13.768;2023-02-04T01:28:30;0.90;;;0.60;;
19739;SDS011;10027;51.066;13.768;2023-02-04T01:30:57;0.50;;;0.50;;
19739;SDS011;10027;51.066;13.768;2023-02-04T01:33:24;1.17;;;0.60;;
19739;SDS011;10027;51.066;13.768;2023-02-04T01:35:51;0.60;;;0.40;;
19739;SDS011;10027;51.066;13.768;2023-02-04T01:38:18;0.70;;;0.50;;
19739;SDS011;10027;51.066;13.768;2023-02-04T01:40:45;0.53;;;0.43;;
19739;SDS011;10027;51.066;13.768;2023-02-04T01:43:13;0.93;;;0.60;;
19739;SDS011;10027;51.066;13.768;2023-02-04T01:45:45;0.70;;;0.50;;
19739;SDS011;10027;51.066;13.768;2023-02-04T01:48:13;0.77;;;0.60;;
19739;SDS011;10027;51.066;13.768;2023-02-04T01:50:56;2.30;;;0.60;;
19739;SDS011;10027;51.066;13.768;2023-02-04T01:53:25;0.50;;;0.50;;
19739;SDS011;10027;51.066;13.768;2023-02-04T01:55:52;0.57;;;0.50;;
19739;SDS011;10027;51.066;13.768;2023-02-04T01:58:19;1.30;;;0.60;;
19739;SDS011;10027;51.066;13.768;2023-02-04T02:00:46;0.70;;;0.60;;
19739;SDS011;10027;51.066;13.768;2023-02-04T02:03:14;0.73;;;0.63;;
19739;SDS011;10027;51.066;13.768;2023-02-04T02:05:42;1.50;;;0.60;;
19739;SDS011;10027;51.066;13.768;2023-02-04T02:08:10;1.03;;;0.60;;
19739;SDS011;10027;51.066;13.768;2023-02-04T02:10:38;1.00;;;0.77;;
19739;SDS011;10027;51.066;13.768;2023-02-04T02:13:07;0.73;;;0.70;;
19739;SDS011;10027;51.066;13.768;2023-02-04T02:15:35;0.97;;;0.70;;
19739;SDS011;10027;51.066;13.768;2023-02-04T02:18:02;0.80;;;0.60;;
19739;SDS011;10027;51.066;13.768;2023-02-04T02:20:30;1.13;;;0.70;;
19739;SDS011;10027;51.066;13.768;2023-02-04T02:25:27;1.27;;;0.80;;
19739;SDS011;10027;51.066;13.768;2023-02-04T02:27:54;0.80;;;0.67;;
19739;SDS011;10027;51.066;13.768;2023-02-04T02:30:22;1.17;;;0.70;;
19739;SDS011;10027;51.066;13.768;2023-02-04T02:32:49;1.43;;;0.80;;
19739;SDS011;10027;51.066;13.768;2023-02-04T02:35:17;1.10;;;0.80;;
19739;SDS011;10027;51.066;13.768;2023-02-04T02:37:44;1.20;;;0.90;;
19739;SDS011;10027;51.066;13.768;2023-02-04T02:40:12;0.60;;;0.60;;
19739;SDS011;10027;51.066;13.768;2023-02-04T02:42:40;1.47;;;1.10;;
19739;SDS011;10027;51.066;13.768;2023-02-04T02:45:20;1.30;;;0.90;;
19739;SDS011;10027;51.066;13.768;2023-02-04T02:47:48;1.13;;;0.70;;
19739;SDS011;10027;51.066;13.768;2023-02-04T02:50:16;0.90;;;0.90;;
19739;SDS011;10027;51.066;13.768;2023-02-04T02:52:44;0.80;;;0.80;;
19739;SDS011;10027;51.066;13.768;2023-02-04T02:55:15;1.00;;;0.90;;
19739;SDS011;10027;51.066;13.768;2023-02-04T02:57:43;1.00;;;0.90;;
19739;SDS011;10027;51.066;13.768;2023-02-04T03:02:41;1.30;;;0.60;;
19739;SDS011;10027;51.066;13.768;2023-02-04T03:05:09;1.40;;;1.30;;
19739;SDS011;10027;51.066;13.768;2023-02-04T03:07:37;1.90;;;1.00;;
19739;SDS011;10027;51.066;13.768;2023-02-04T03:10:04;2.50;;;1.10;;
19739;SDS011;10027;51.066;13.768;2023-02-04T03:12:31;1.47;;;0.87;;
19739;SDS011;10027;51.066;13.768;2023-02-04T03:14:59;0.97;;;0.77;;
19739;SDS011;10027;51.066;13.768;2023-02-04T03:17:26;1.23;;;0.90;;
19739;SDS011;10027;51.066;13.768;2023-02-04T03:19:53;1.00;;;0.90;;
19739;SDS011;10027;51.066;13.768;2023-02-04T03:22:20;1.37;;;1.00;;
19739;SDS011;10027;51.066;13.768;2023-02-04T03:24:48;1.80;;;1.00;;
19739;SDS011;10027;51.066;13.768;2023-02-04T03:27:15;1.00;;;0.90;;
19739;SDS011;10027;51.066;13.768;2023-02-04T03:29:44;1.50;;;0.90;;
19739;SDS011;10027;51.066;13.768;2023-02-04T03:32:12;1.60;;;0.90;;
19739;SDS011;10027;51.066;13.768;2023-02-04T03:34:39;2.30;;;1.00;;
19739;SDS011;10027;51.066;13.768;2023-02-04T03:37:06;1.03;;;0.90;;
19739;SDS011;10027;51.066;13.768;2023-02-04T03:39:33;1.77;;;1.07;;
19739;SDS011;10027;51.066;13.768;2023-02-04T03:42:00;1.00;;;0.90;;
19739;SDS011;10027;51.066;13.768;2023-02-04T03:44:27;1.97;;;1.07;;
19739;SDS011;10027;51.066;13.768;2023-02-04T03:46:54;0.90;;;0.90;;
19739;SDS011;10027;51.066;13.768;2023-02-04T03:49:22;1.07;;;0.80;;
19739;SDS011;10027;51.066;13.768;2023-02-04T03:51:49;0.97;;;0.70;;
19739;SDS011;10027;51.066;13.768;2023-02-04T03:54:17;1.73;;;0.67;;
19739;SDS011;10027;51.066;13.768;2023-02-04T03:56:44;1.37;;;0.77;;
19739;SDS011;10027;51.066;13.768;2023-02-04T03:59:11;2.40;;;0.50;;
19739;SDS011;10027;51.066;13.768;2023-02-04T04:01:38;1.00;;;0.60;;
19739;SDS011;10027;51.066;13.768;2023-02-04T04:04:06;0.70;;;0.60;;
19739;SDS011;10027;51.066;13.768;2023-02-04T04:06:33;0.73;;;0.43;;
19739;SDS011;10027;51.066;13.768;2023-02-04T04:09:00;0.93;;;0.70;;
19739;SDS011;10027;51.066;13.768;2023-02-04T04:11:27;0.70;;;0.60;;
19739;SDS011;10027;51.066;13.768;2023-02-04T04:13:54;0.90;;;0.70;;
19739;SDS011;10027;51.066;13.768;2023-02-04T04:16:21;0.80;;;0.70;;
19739;SDS011;10027;51.066;13.768;2023-02-04T04:18:48;1.60;;;0.70;;
19739;SDS011;10027;51.066;13.768;2023-02-04T04:21:15;0.93;;;0.70;;
19739;SDS011;10027;51.066;13.768;2023-02-04T04:23:42;1.17;;;0.73;;
19739;SDS011;10027;51.066;13.768;2023-02-04T04:26:09;0.70;;;0.67;;
19739;SDS011;10027;51.066;13.768;2023-02-04T04:28:36;1.00;;;0.90;;
19739;SDS011;10027;51.066;13.768;2023-02-04T04:31:03;0.70;;;0.40;;
19739;SDS011;10027;51.066;13.768;2023-02-04T04:33:31;1.77;;;0.83;;
19739;SDS011;10027;51.066;13.768;2023-02-04T04:35:58;1.07;;;0.83;;
19739;SDS011;10027;51.066;13.768;2023-02-04T04:38:25;1.70;;;1.03;;
19739;SDS011;10027;51.066;13.768;2023-02-04T04:40:52;2.00;;;0.97;;
19739;SDS011;10027;51.066;13.768;2023-02-04T04:43:19;1.73;;;1.23;;
19739;SDS011;10027;51.066;13.768;2023-02-04T04:45:46;2.93;;;1.40;;
19739;SDS011;10027;51.066;13.768;2023-02-04T04:48:13;1.67;;;1.10;;
19739;SDS011;10027;51.066;13.768;2023-02-04T04:50:40;1.03;;;0.87;;
19739;SDS011;10027;51.066;13.768;2023-02-04T04:53:07;1.37;;;0.87;;
19739;SDS011;10027;51.066;13.768;2023-02-04T04:55:36;1.70;;;1.13;;
19739;SDS011;10027;51.066;13.768;2023-02-04T04:58:04;1.97;;;1.13;;
19739;SDS011;10027;51.066;13.768;2023-02-04T05:00:31;1.50;;;0.70;;
19739;SDS011;10027;51.066;13.768;2023-02-04T05:02:59;1.47;;;1.13;;
19739;SDS011;10027;51.066;13.768;2023-02-04T05:05:26;1.70;;;0.90;;
19739;SDS011;10027;51.066;13.768;2023-02-04T05:07:53;1.13;;;1.00;;
19739;SDS011;10027;51.066;13.768;2023-02-04T05:10:20;1.27;;;0.73;;
19739;SDS011;10027;51.066;13.768;2023-02-04T05:12:47;1.60;;;1.03;;
19739;SDS011;10027;51.066;13.768;2023-02-04T05:15:15;1.33;;;0.70;;
19739;SDS011;10027;51.066;13.768;2023-02-04T05:17:42;1.07;;;0.90;;
19739;SDS011;10027;51.066;13.768;2023-02-04T05:20:09;1.03;;;0.90;;
19739;SDS011;10027;51.066;13.768;2023-02-04T05:22:36;1.30;;;1.00;;
19739;SDS011;10027;51.066;13.768;2023-02-04T05:25:03;1.37;;;1.20;;
19739;SDS011;10027;51.066;13.768;2023-02-04T05:27:30;1.60;;;1.23;;
19739;SDS011;10027;51.066;13.768;2023-02-04T05:29:58;1.27;;;1.17;;
19739;SDS011;10027;51.066;13.768;2023-02-04T05:32:25;1.67;;;1.00;;
19739;SDS011;10027;51.066;13.768;2023-02-04T05:34:52;2.23;;;0.90;;
19739;SDS011;10027;51.066;13.768;2023-02-04T05:37:19;2.70;;;1.17;;
19739;SDS011;10027;51.066;13.768;2023-02-04T05:39:46;1.33;;;1.00;;
19739;SDS011;10027;51.066;13.768;2023-02-04T05:42:13;1.33;;;1.10;;
19739;SDS011;10027;51.066;13.768;2023-02-04T05:44:40;1.30;;;1.07;;
19739;SDS011;10027;51.066;13.768;2023-02-04T05:47:07;2.70;;;1.40;;
19739;SDS011;10027;51.066;13.768;2023-02-04T05:49:34;1.30;;;0.90;;
19739;SDS011;10027;51.066;13.768;2023-02-04T05:52:01;1.20;;;0.80;;
19739;SDS011;10027;51.066;13.768;2023-02-04T05:54:28;2.00;;;0.90;;
19739;SDS011;10027;51.066;13.768;2023-02-04T05:56:55;2.27;;;0.90;;
19739;SDS011;10027;51.066;13.768;2023-02-04T05:59:22;1.30;;;0.80;;
19739;SDS011;10027;51.066;13.768;2023-02-04T06:01:50;1.57;;;1.10;;
19739;SDS011;10027;51.066;13.768;2023-02-04T06:04:17;2.20;;;0.90;;
19739;SDS011;10027;51.066;13.768;2023-02-04T06:06:44;1.13;;;0.80;;
19739;SDS011;10027;51.066;13.768;2023-02-04T06:09:11;1.90;;;0.83;;
19739;SDS011;10027;51.066;13.768;2023-02-04T06:11:38;1.57;;;0.90;;
19739;SDS011;10027;51.066;13.768;2023-02-04T06:14:05;2.20;;;1.03;;
19739;SDS011;10027;51.066;13.768;2023-02-04T06:16:33;3.67;;;1.10;;
19739;SDS011;10027;51.066;13.768;2023-02-04T06:19:00;1.67;;;0.90;;
19739;SDS011;10027;51.066;13.768;2023-02-04T06:21:27;2.33;;;0.90;;
19739;SDS011;10027;51.066;13.768;2023-02-04T06:23:54;3.00;;;0.80;;
19739;SDS011;10027;51.066;13.768;2023-02-04T06:26:22;1.40;;;0.80;;
19739;SDS011;10027;51.066;13.768;2023-02-04T06:28:49;1.13;;;0.90;;
19739;SDS011;10027;51.066;13.768;2023-02-04T06:31:16;1.13;;;0.67;;
19739;SDS011;10027;51.066;13.768;2023-02-04T06:33:43;1.43;;;0.70;;
19739;SDS011;10027;51.066;13.768;2023-02-04T06:36:10;1.43;;;0.70;;
19739;SDS011;10027;51.066;13.768;2023-02-04T06:38:37;0.70;;;0.60;;
19739;SDS011;10027;51.066;13.768;2023-02-04T06:41:04;1.20;;;0.60;;
19739;SDS011;10027;51.066;13.768;2023-02-04T06:43:31;1.67;;;0.60;;
19739;SDS011;10027;51.066;13.768;2023-02-04T06:45:59;2.07;;;0.80;;
19739;SDS011;10027;51.066;13.768;2023-02-04T06:48:26;0.80;;;0.60;;
19739;SDS011;10027;51.066;13.768;2023-02-04T06:50:55;1.33;;;0.60;;
19739;SDS011;10027;51.066;13.768;2023-02-04T06:53:23;1.43;;;0.73;;
19739;SDS011;10027;51.066;13.768;2023-02-04T06:55:50;1.13;;;0.70;;
19739;SDS011;10027;51.066;13.768;2023-02-04T06:58:17;2.03;;;0.97;;
19739;SDS011;10027;51.066;13.768;2023-02-04T07:00:44;1.20;;;0.70;;
19739;SDS011;10027;51.066;13.768;2023-02-04T07:03:11;1.63;;;0.97;;
19739;SDS011;10027;51.066;13.768;2023-02-04T07:05:39;1.73;;;0.97;;
19739;SDS011;10027;51.066;13.768;2023-02-04T07:08:06;1.60;;;0.80;;
19739;SDS011;10027;51.066;13.768;2023-02-04T07:10:33;1.27;;;1.00;;
19739;SDS011;10027;51.066;13.768;2023-02-04T07:13:00;2.17;;;1.20;;
19739;SDS011;10027;51.066;13.768;2023-02-04T07:15:27;3.13;;;0.83;;
19739;SDS011;10027;51.066;13.768;2023-02-04T07:17:56;1.53;;;1.07;;
19739;SDS011;10027;51.066;13.768;2023-02-04T07:20:23;1.93;;;0.90;;
19739;SDS011;10027;51.066;13.768;2023-02-04T07:22:50;2.60;;;1.00;;
19739;SDS011;10027;51.066;13.768;2023-02-04T07:25:17;1.43;;;0.90;;
19739;SDS011;10027;51.066;13.768;2023-02-04T07:27:44;1.30;;;0.90;;
19739;SDS011;10027;51.066;13.768;2023-02-04T07:30:11;1.00;;;0.60;;
19739;SDS011;10027;51.066;13.768;2023-02-04T07:32:39;1.13;;;1.00;;
19739;SDS011;10027;51.066;13.768;2023-02-04T07:35:06;1.40;;;0.80;;
19739;SDS011;10027;51.066;13.768;2023-02-04T07:37:33;5.33;;;1.03;;
19739;SDS011;10027;51.066;13.768;2023-02-04T07:40:00;1.80;;;0.80;;
19739;SDS011;10027;51.066;13.768;2023-02-04T07:42:27;2.10;;;0.90;;
19739;SDS011;10027;51.066;13.768;2023-02-04T07:44:54;1.50;;;1.00;;
19739;SDS011;10027;51.066;13.768;2023-02-04T07:47:21;5.00;;;0.90;;
19739;SDS011;10027;51.066;13.768;2023-02-04T07:49:48;1.47;;;0.67;;
19739;SDS011;10027;51.066;13.768;2023-02-04T07:52:16;2.03;;;1.00;;
19739;SDS011;10027;51.066;13.768;2023-02-04T07:54:43;1.60;;;0.90;;
19739;SDS011;10027;51.066;13.768;2023-02-04T07:57:10;1.57;;;1.00;;
19739;SDS011;10027;51.066;13.768;2023-02-04T07:59:37;2.20;;;1.10;;
19739;SDS011;10027;51.066;13.768;2023-02-04T08:02:04;1.60;;;1.13;;
19739;SDS011;10027;51.066;13.768;2023-02-04T08:04:32;1.90;;;1.33;;
19739;SDS011;10027;51.066;13.768;2023-02-04T08:06:59;1.47;;;1.10;;
19739;SDS011;10027;51.066;13.768;2023-02-04T08:09:26;1.53;;;0.90;;
19739;SDS011;10027;51.066;13.768;2023-02-04T08:11:53;2.57;;;1.20;;
19739;SDS011;10027;51.066;13.768;2023-02-04T08:14:20;3.63;;;1.30;;
19739;SDS011;10027;51.066;13.768;2023-02-04T08:16:47;2.30;;;1.00;;
19739;SDS011;10027;51.066;13.768;2023-02-04T08:19:14;1.53;;;1.30;;
19739;SDS011;10027;51.066;13.768;2023-02-04T08:21:44;2.13;;;1.20;;
19739;SDS011;10027;51.066;13.768;2023-02-04T08:24:11;8.67;;;1.50;;
19739;SDS011;10027;51.066;13.768;2023-02-04T08:26:39;3.20;;;1.40;;
19739;SDS011;10027;51.066;13.768;2023-02-04T08:29:07;4.23;;;1.53;;
19739;SDS011;10027;51.066;13.768;2023-02-04T08:31:34;3.37;;;1.73;;
19739;SDS011;10027;51.066;13.768;2023-02-04T08:34:03;2.20;;;1.60;;
19739;SDS011;10027;51.066;13.768;2023-02-04T08:36:30;3.37;;;1.50;;
19739;SDS011;10027;51.066;13.768;2023-02-04T08:38:57;3.00;;;1.70;;
19739;SDS011;10027;51.066;13.768;2023-02-04T08:41:25;2.10;;;1.40;;
19739;SDS011;10027;51.066;13.768;2023-02-04T08:43:52;2.63;;;1.60;;
19739;SDS011;10027;51.066;13.768;2023-02-04T08:46:19;3.60;;;1.57;;
19739;SDS011;10027;51.066;13.768;2023-02-04T08:48:46;2.47;;;1.30;;
19739;SDS011;10027;51.066;13.768;2023-02-04T08:51:13;2.73;;;1.47;;
19739;SDS011;10027;51.066;13.768;2023-02-04T08:53:40;2.27;;;1.30;;
19739;SDS011;10027;51.066;13.768;2023-02-04T08:56:07;4.13;;;1.70;;
19739;SDS011;10027;51.066;13.768;2023-02-04T08:58:35;2.33;;;1.77;;
19739;SDS011;10027;51.066;13.768;2023-02-04T09:01:02;4.83;;;1.70;;
19739;SDS011;10027;51.066;13.768;2023-02-04T09:03:29;2.60;;;1.40;;
19739;SDS011;10027;51.066;13.768;2023-02-04T09:05:57;3.63;;;1.70;;
19739;SDS011;10027;51.066;13.768;2023-02-04T09:08:24;1.90;;;1.60;;
19739;SDS011;10027;51.066;13.768;2023-02-04T09:10:51;2.63;;;1.70;;
19739;SDS011;10027;51.066;13.768;2023-02-04T09:13:18;2.27;;;1.37;;
19739;SDS011;10027;51.066;13.768;2023-02-04T09:15:45;2.40;;;1.57;;
19739;SDS011;10027;51.066;13.768;2023-02-04T09:18:12;2.10;;;1.57;;
19739;SDS011;10027;51.066;13.768;2023-02-04T09:20:42;3.03;;;1.33;;
19739;SDS011;10027;51.066;13.768;2023-02-04T09:23:09;2.77;;;1.43;;
19739;SDS011;10027;51.066;13.768;2023-02-04T09:25:37;2.27;;;1.30;;
19739;SDS011;10027;51.066;13.768;2023-02-04T09:28:05;2.70;;;1.67;;
19739;SDS011;10027;51.066;13.768;2023-02-04T09:30:35;3.87;;;1.47;;
19739;SDS011;10027;51.066;13.768;2023-02-04T09:33:02;1.80;;;1.33;;
19739;SDS011;10027;51.066;13.768;2023-02-04T09:35:29;3.20;;;1.40;;
19739;SDS011;10027;51.066;13.768;2023-02-04T09:37:56;3.63;;;1.80;;
19739;SDS011;10027;51.066;13.768;2023-02-04T09:40:23;2.60;;;1.50;;
19739;SDS011;10027;51.066;13.768;2023-02-04T09:42:52;2.67;;;1.40;;
19739;SDS011;10027;51.066;13.768;2023-02-04T09:45:21;1.93;;;1.20;;
19739;SDS011;10027;51.066;13.768;2023-02-04T09:47:49;3.47;;;1.77;;
19739;SDS011;10027;51.066;13.768;2023-02-04T09:50:18;2.70;;;1.30;;
19739;SDS011;10027;51.066;13.768;2023-02-04T09:52:47;3.40;;;1.57;;
19739;SDS011;10027;51.066;13.768;2023-02-04T09:55:16;3.37;;;1.67;;
19739;SDS011;10027;51.066;13.768;2023-02-04T09:57:43;2.33;;;1.40;;
19739;SDS011;10027;51.066;13.768;2023-02-04T10:00:20;2.93;;;1.30;;
19739;SDS011;10027;51.066;13.768;2023-02-04T10:02:47;2.57;;;1.33;;
19739;SDS011;10027;51.066;13.768;2023-02-04T10:05:16;2.20;;;1.37;;
19739;SDS011;10027;51.066;13.768;2023-02-04T10:07:43;2.10;;;1.50;;
19739;SDS011;10027;51.066;13.768;2023-02-04T10:10:21;3.17;;;1.43;;
19739;SDS011;10027;51.066;13.768;2023-02-04T10:12:50;3.67;;;1.30;;
19739;SDS011;10027;51.066;13.768;2023-02-04T10:15:18;2.10;;;1.53;;
19739;SDS011;10027;51.066;13.768;2023-02-04T10:17:50;2.20;;;1.30;;
19739;SDS011;10027;51.066;13.768;2023-02-04T10:20:19;3.23;;;1.27;;
19739;SDS011;10027;51.066;13.768;2023-02-04T10:22:47;1.60;;;1.27;;
19739;SDS011;10027;51.066;13.768;2023-02-04T10:25:16;2.60;;;1.20;;
19739;SDS011;10027;51.066;13.768;2023-02-04T10:27:51;3.03;;;1.40;;
19739;SDS011;10027;51.066;13.768;2023-02-04T10:30:19;2.00;;;1.30;;
19739;SDS011;10027;51.066;13.768;2023-02-04T10:32:48;4.50;;;1.50;;
19739;SDS011;10027;51.066;13.768;2023-02-04T10:35:16;2.20;;;1.60;;
19739;SDS011;10027;51.066;13.768;2023-02-04T10:37:43;3.03;;;1.40;;
19739;SDS011;10027;51.066;13.768;2023-02-04T10:42:53;2.20;;;2.00;;
19739;SDS011;10027;51.066;13.768;2023-02-04T10:45:24;1.97;;;1.60;;
19739;SDS011;10027;51.066;13.768;2023-02-04T10:47:52;2.67;;;2.00;;
19739;SDS011;10027;51.066;13.768;2023-02-04T10:50:27;3.27;;;1.93;;
19739;SDS011;10027;51.066;13.768;2023-02-04T10:52:56;3.03;;;1.90;;
19739;SDS011;10027;51.066;13.768;2023-02-04T10:55:44;3.23;;;1.90;;
19739;SDS011;10027;51.066;13.768;2023-02-04T10:58:13;4.17;;;2.47;;
19739;SDS011;10027;51.066;13.768;2023-02-04T11:00:41;2.87;;;2.07;;
19739;SDS011;10027;51.066;13.768;2023-02-04T11:03:16;2.10;;;1.90;;
19739;SDS011;10027;51.066;13.768;2023-02-04T11:05:44;2.40;;;1.87;;
19739;SDS011;10027;51.066;13.768;2023-02-04T11:10:57;5.13;;;1.87;;
19739;SDS011;10027;51.066;13.768;2023-02-04T11:13:25;1.97;;;1.77;;
19739;SDS011;10027;51.066;13.768;2023-02-04T11:18:41;3.27;;;1.67;;
19739;SDS011;10027;51.066;13.768;2023-02-04T11:21:13;1.80;;;1.40;;
19739;SDS011;10027;51.066;13.768;2023-02-04T11:23:40;3.17;;;1.57;;
19739;SDS011;10027;51.066;13.768;2023-02-04T11:26:17;2.50;;;1.90;;
19739;SDS011;10027;51.066;13.768;2023-02-04T11:33:48;3.37;;;1.53;;
19739;SDS011;10027;51.066;13.768;2023-02-04T11:36:16;3.17;;;1.80;;
19739;SDS011;10027;51.066;13.768;2023-02-04T11:38:44;1.93;;;1.30;;
19739;SDS011;10027;51.066;13.768;2023-02-04T11:41:15;2.40;;;1.60;;
19739;SDS011;10027;51.066;13.768;2023-02-04T11:43:43;1.73;;;1.50;;
19739;SDS011;10027;51.066;13.768;2023-02-04T11:46:15;2.33;;;1.60;;
19739;SDS011;10027;51.066;13.768;2023-02-04T11:48:42;1.57;;;1.20;;
19739;SDS011;10027;51.066;13.768;2023-02-04T11:51:19;2.37;;;1.70;;
19739;SDS011;10027;51.066;13.768;2023-02-04T11:53:50;2.33;;;1.50;;
19739;SDS011;10027;51.066;13.768;2023-02-04T11:56:18;2.77;;;1.53;;
19739;SDS011;10027;51.066;13.768;2023-02-04T11:58:46;1.53;;;1.43;;
19739;SDS011;10027;51.066;13.768;2023-02-04T12:01:17;1.57;;;1.47;;
19739;SDS011;10027;51.066;13.768;2023-02-04T12:03:47;3.00;;;1.33;;
19739;SDS011;10027;51.066;13.768;2023-02-04T12:06:21;2.20;;;1.30;;
19739;SDS011;10027;51.066;13.768;2023-02-04T12:08:48;7.87;;;1.60;;
19739;SDS011;10027;51.066;13.768;2023-02-04T12:11:26;2.90;;;1.43;;
19739;SDS011;10027;51.066;13.768;2023-02-04T12:13:56;2.87;;;1.73;;
19739;SDS011;10027;51.066;13.768;2023-02-04T12:16:24;1.90;;;1.40;;
19739;SDS011;10027;51.066;13.768;2023-02-04T12:18:51;1.77;;;1.10;;
19739;SDS011;10027;51.066;13.768;2023-02-04T12:21:20;2.13;;;1.30;;
19739;SDS011;10027;51.066;13.768;2023-02-04T12:23:47;3.30;;;1.50;;
19739;SDS011;10027;51.066;13.768;2023-02-04T12:26:14;1.70;;;1.10;;
19739;SDS011;10027;51.066;13.768;2023-02-04T12:28:41;4.00;;;1.53;;
19739;SDS011;10027;51.066;13.768;2023-02-04T12:31:08;1.27;;;1.17;;
19739;SDS011;10027;51.066;13.768;2023-02-04T12:33:35;2.03;;;1.20;;
19739;SDS011;10027;51.066;13.768;2023-02-04T12:36:03;1.30;;;1.20;;
19739;SDS011;10027;51.066;13.768;2023-02-04T12:38:30;2.17;;;1.20;;
19739;SDS011;10027;51.066;13.768;2023-02-04T12:40:57;2.60;;;1.40;;
19739;SDS011;10027;51.066;13.768;2023-02-04T12:43:24;1.53;;;1.27;;
19739;SDS011;10027;51.066;13.768;2023-02-04T12:45:53;1.80;;;1.20;;
19739;SDS011;10027;51.066;13.768;2023-02-04T12:48:20;1.33;;;1.10;;
19739;SDS011;10027;51.066;13.768;2023-02-04T12:50:48;1.80;;;1.50;;
19739;SDS011;10027;51.066;13.768;2023-02-04T12:53:15;2.73;;;1.03;;
19739;SDS011;10027;51.066;13.768;2023-02-04T12:55:42;2.37;;;1.00;;
19739;SDS011;10027;51.066;13.768;2023-02-04T12:58:09;2.73;;;1.00;;
19739;SDS011;10027;51.066;13.768;2023-02-04T13:00:36;1.00;;;0.90;;
19739;SDS011;10027;51.066;13.768;2023-02-04T13:03:03;1.33;;;0.87;;
19739;SDS011;10027;51.066;13.768;2023-02-04T13:05:30;1.13;;;0.80;;
19739;SDS011;10027;51.066;13.768;2023-02-04T13:07:58;1.10;;;0.80;;
19739;SDS011;10027;51.066;13.768;2023-02-04T13:10:25;0.87;;;0.80;;
19739;SDS011;10027;51.066;13.768;2023-02-04T13:12:52;2.47;;;1.10;;
19739;SDS011;10027;51.066;13.768;2023-02-04T13:15:19;1.20;;;0.80;;
19739;SDS011;10027;51.066;13.768;2023-02-04T13:17:46;3.00;;;1.30;;
19739;SDS011;10027;51.066;13.768;2023-02-04T13:20:14;2.60;;;0.90;;
19739;SDS011;10027;51.066;13.768;2023-02-04T13:22:41;1.00;;;0.80;;
19739;SDS011;10027;51.066;13.768;2023-02-04T13:25:08;1.43;;;0.90;;
19739;SDS011;10027;51.066;13.768;2023-02-04T13:27:37;2.03;;;0.60;;
19739;SDS011;10027;51.066;13.768;2023-02-04T13:30:04;1.17;;;0.80;;
19739;SDS011;10027;51.066;13.768;2023-02-04T13:32:32;1.57;;;0.70;;
19739;SDS011;10027;51.066;13.768;2023-02-04T13:34:59;1.00;;;0.60;;
19739;SDS011;10027;51.066;13.768;2023-02-04T13:37:26;2.03;;;0.50;;
19739;SDS011;10027;51.066;13.768;2023-02-04T13:39:53;0.50;;;0.40;;
19739;SDS011;10027;51.066;13.768;2023-02-04T13:42:20;1.20;;;0.70;;
19739;SDS011;10027;51.066;13.768;2023-02-04T13:44:47;0.97;;;0.50;;
19739;SDS011;10027;51.066;13.768;2023-02-04T13:47:14;1.93;;;0.80;;
19739;SDS011;10027;51.066;13.768;2023-02-04T13:49:41;2.53;;;0.87;;
19739;SDS011;10027;51.066;13.768;2023-02-04T13:52:09;2.40;;;1.03;;
19739;SDS011;10027;51.066;13.768;2023-02-04T13:54:36;1.30;;;1.00;;
19739;SDS011;10027;51.066;13.768;2023-02-04T13:57:03;0.63;;;0.63;;
19739;SDS011;10027;51.066;13.768;2023-02-04T13:59:30;1.93;;;0.50;;
19739;SDS011;10027;51.066;13.768;2023-02-04T14:01:57;1.70;;;0.60;;
19739;SDS011;10027;51.066;13.768;2023-02-04T14:04:25;0.87;;;0.60;;
19739;SDS011;10027;51.066;13.768;2023-02-04T14:06:52;0.57;;;0.50;;
19739;SDS011;10027;51.066;13.768;2023-02-04T14:09:20;0.40;;;0.40;;
19739;SDS011;10027;51.066;13.768;2023-02-04T14:11:48;0.57;;;0.40;;
19739;SDS011;10027;51.066;13.768;2023-02-04T14:14:15;0.87;;;0.70;;
19739;SDS011;10027;51.066;13.768;2023-02-04T14:16:42;1.17;;;0.50;;
19739;SDS011;10027;51.066;13.768;2023-02-04T14:19:09;0.73;;;0.40;;
19739;SDS011;10027;51.066;13.768;2023-02-04T14:21:36;2.10;;;0.80;;
19739;SDS011;10027;51.066;13.768;2023-02-04T14:24:03;0.43;;;0.40;;
19739;SDS011;10027;51.066;13.768;2023-02-04T14:26:31;3.13;;;1.00;;
19739;SDS011;10027;51.066;13.768;2023-02-04T14:28:58;1.60;;;0.60;;
19739;SDS011;10027;51.066;13.768;2023-02-04T14:31:25;1.60;;;0.50;;
19739;SDS011;10027;51.066;13.768;2023-02-04T14:33:52;3.33;;;0.80;;
19739;SDS011;10027;51.066;13.768;2023-02-04T14:36:20;4.00;;;0.60;;
19739;SDS011;10027;51.066;13.768;2023-02-04T14:38:47;1.80;;;0.50;;
19739;SDS011;10027;51.066;13.768;2023-02-04T14:41:14;1.23;;;0.50;;
19739;SDS011;10027;51.066;13.768;2023-02-04T14:43:45;1.00;;;0.60;;
19739;SDS011;10027;51.066;13.768;2023-02-04T14:46:12;1.40;;;0.80;;
19739;SDS011;10027;51.066;13.768;2023-02-04T14:48:39;1.53;;;0.67;;
19739;SDS011;10027;51.066;13.768;2023-02-04T14:51:06;2.03;;;0.60;;
19739;SDS011;10027;51.066;13.768;2023-02-04T14:53:33;1.77;;;0.80;;